Quechee, VT (05059)

7:26 AM EDT on October 25, 2014 (GMT -0400)
Quechee Lakes Sec 1 | Change Station
CLOSE
Current Station
Personal Weather Station
Location: Quechee, VT
Elevation: 1180 ft
Nearby Weather Stations

Elev 1180 ft 43.65 °N, 72.46 °W | Updated 7 seconds ago

Mostly Cloudy
Mostly Cloudy
38.7 °F
Feels Like 39 °F
N
0.0
Wind Variable Wind from North
Gusts 0.0 mph

Today
High -- | Low -- °F
--% Chance of Precip.
Yesterday
High -- | Low -- °F
Precip. -- in
7:16 AM 5:50 PM
Waxing Crescent, 3% visible
Pressure 29.78 in
Visibility 0.2 miles
Clouds
Windchill 39 °F
Dew Point 36 °F
Humidity 90%
Rainfall 0.00 in
Snow Depth Not available.
UV Not available.
Pollen .20 out of 12
Ozone Good
PM2.5 Good
Flu Activity Sporadic
METAR KLEB 251053Z 00000KT 1/4SM FG VV001 01/00 A2977 RMK AO2 SLP085 T00110000

More Conditions Fewer Conditions

Pressure 29.78 in
Visibility 0.2 miles
Clouds
Windchill 39 °F
Dew Point 36 °F
Humidity 90%
Rainfall 0.00 in
Snow Depth Not available.
UV Not available.
Pollen .20 out of 12
Ozone Good
PM2.5 Good
Flu Activity Sporadic
METAR KLEB 251053Z 00000KT 1/4SM FG VV001 01/00 A2977 RMK AO2 SLP085 T00110000

More Conditions Fewer Conditions

10-Day Weather Forecast

Almanac

Astronomy

Oct. 25, 2014 Rise Set
Actual Time 7:16 AM EDT 5:50 PM EDT
Civil Twilight 6:46 AM EDT 6:19 PM EDT
Nautical Twilight 6:13 AM EDT 6:53 PM EDT
Astronomical Twilight 5:40 AM EDT 7:26 PM EDT
Moon 8:54 AM EDT 7:08 PM EDT
Length of Visible Light 11h 32m
Length of Day
10h 34m
Tomorrow will be 2m 45s shorter.
Waxing Crescent, 3% of the Moon is Illuminated
Today
Waxing Crescent
Oct 30
First Quarter
Nov 6
Full
Nov 14
Last Quarter
Nov 22
New

Today's Extremes

State Highs State Lows

Community

WunderPhotos

Upload Photos

1,764,810 photos uploaded!

Nearby

Air Quality

  Air Quality AQ Index Pollutant
Yesterday Good
OZONE
Current Good
OZONE
Current Good
PM2.5
Saturday Good
PM2.5
Sunday Good
PM2.5
Monday Good
PM2.5

Snow Depth

Station Depth Elevation
No new snow has been reported.

Earthquake Activity

City Distance Mag. Time & Date
No recent earthquake activity has been reported nearby.
Minimum magnitude displayed is 2.5.

Coastal Water Temperatures

Place Temperature
No Stations Reporting

Nearby Weather Stations